Time;durP1;ratioP1;P1;durP2;ratioP2;P2;SDS_P1;SDS_P2;PMS_P1;PMS_P2;Temp;Humidity;BMP_temperature;BMP_pressure;BME280_temperature;BME280_humidity;BME280_pressure;Samples;Min_cycle;Max_cycle;Signal;HPM_P1;HPM_P2
2022/11/30 00:00:25;;;;;;;77.10;26.93;;;6.30;99.90;;;;;;5104791;28;20319;-49
2022/11/30 00:02:54;;;;;;;79.27;27.97;;;6.20;99.90;;;;;;5105060;28;20174;-50
2022/11/30 00:05:21;;;;;;;81.50;25.37;;;6.30;99.90;;;;;;5104805;28;20235;-49
2022/11/30 00:07:47;;;;;;;76.90;26.80;;;6.30;99.90;;;;;;5087159;28;20187;-49
2022/11/30 00:10:12;;;;;;;84.67;25.53;;;6.30;99.90;;;;;;5104493;28;20264;-49
2022/11/30 00:12:41;;;;;;;80.20;26.83;;;6.30;99.90;;;;;;5104750;28;20181;-49
2022/11/30 00:15:09;;;;;;;83.20;25.93;;;6.30;99.90;;;;;;5105028;28;20169;-50
2022/11/30 00:17:35;;;;;;;80.67;26.43;;;6.30;99.90;;;;;;5105149;28;20273;-49
2022/11/30 00:20:00;;;;;;;77.10;24.70;;;6.30;99.90;;;;;;5086533;28;20198;-49
2022/11/30 00:22:26;;;;;;;77.03;25.97;;;6.30;99.90;;;;;;5104066;28;20226;-48
2022/11/30 00:24:51;;;;;;;71.83;25.47;;;6.30;99.90;;;;;;5104548;28;20177;-50
2022/11/30 00:27:17;;;;;;;65.27;24.20;;;6.30;99.90;;;;;;5104599;28;20641;-50
2022/11/30 00:29:43;;;;;;;79.30;26.53;;;6.30;99.90;;;;;;5104550;28;20213;-49
2022/11/30 00:32:08;;;;;;;83.10;25.40;;;6.30;99.90;;;;;;5086074;28;20182;-46
2022/11/30 00:34:34;;;;;;;75.10;26.60;;;6.30;99.90;;;;;;5104691;28;20189;-50
2022/11/30 00:36:59;;;;;;;66.97;25.03;;;6.40;99.90;;;;;;5103982;28;20234;-50
2022/11/30 00:39:25;;;;;;;71.17;24.20;;;6.40;99.90;;;;;;5103968;28;20201;-49
2022/11/30 00:41:50;;;;;;;87.60;27.03;;;6.40;99.90;;;;;;5085633;28;20175;-49
2022/11/30 00:44:16;;;;;;;81.07;24.93;;;6.40;99.90;;;;;;5103011;28;20182;-50
2022/11/30 00:46:42;;;;;;;71.17;24.80;;;6.40;99.90;;;;;;5102466;28;20180;-49
2022/11/30 00:49:07;;;;;;;78.63;26.17;;;6.40;99.90;;;;;;5101303;28;20208;-49
2022/11/30 00:51:33;;;;;;;71.00;24.73;;;6.40;99.90;;;;;;5101687;28;20243;-48
2022/11/30 00:53:58;;;;;;;80.40;26.30;;;6.40;99.90;;;;;;5101228;28;20185;-50
2022/11/30 00:56:24;;;;;;;79.27;25.77;;;6.40;99.90;;;;;;5101130;28;20196;-50
2022/11/30 00:58:50;;;;;;;85.13;25.43;;;6.50;99.90;;;;;;5100869;28;20221;-49
2022/11/30 01:01:15;;;;;;;79.23;24.53;;;6.40;99.90;;;;;;5100474;28;20187;-50
2022/11/30 01:03:41;;;;;;;80.07;25.83;;;6.50;99.90;;;;;;5101029;28;20237;-50
2022/11/30 01:06:08;;;;;;;82.90;24.83;;;6.40;99.90;;;;;;5081757;28;20497;-49
2022/11/30 01:08:34;;;;;;;71.47;24.77;;;6.40;99.90;;;;;;5101314;28;20672;-49
2022/11/30 01:11:27;;;;;;;88.33;27.27;;;6.50;99.90;;;;;;5103402;28;20217;-51
2022/11/30 01:13:54;;;;;;;84.90;25.20;;;6.50;99.90;;;;;;5097948;28;20280;-49
2022/11/30 01:16:22;;;;;;;92.77;27.67;;;6.50;99.90;;;;;;5099004;28;20189;-50
2022/11/30 01:18:49;;;;;;;79.50;24.97;;;6.50;99.90;;;;;;5099352;28;20223;-50
2022/11/30 01:21:18;;;;;;;88.97;26.13;;;6.50;99.90;;;;;;5098671;28;20175;-49
2022/11/30 01:23:44;;;;;;;85.37;26.93;;;6.50;99.90;;;;;;5098849;28;20178;-51
2022/11/30 01:26:10;;;;;;;79.23;25.77;;;6.50;99.90;;;;;;5080821;28;20185;-51
2022/11/30 01:28:36;;;;;;;74.53;24.67;;;6.50;99.90;;;;;;5097241;28;20198;-50
2022/11/30 01:31:04;;;;;;;81.93;27.00;;;6.50;99.90;;;;;;5097636;28;20189;-50
2022/11/30 01:33:31;;;;;;;73.07;24.50;;;6.50;99.90;;;;;;5097332;28;20239;-50
2022/11/30 01:36:04;;;;;;;65.53;23.53;;;6.50;99.90;;;;;;5078790;28;20190;-49
2022/11/30 01:38:38;;;;;;;74.73;25.70;;;6.50;99.90;;;;;;5080043;28;20291;-49
2022/11/30 01:41:05;;;;;;;75.60;26.43;;;6.50;99.90;;;;;;5104120;28;20161;-49
2022/11/30 01:43:42;;;;;;;72.67;24.50;;;6.50;99.90;;;;;;5103791;28;20206;-49
2022/11/30 01:46:35;;;;;;;65.10;24.00;;;6.50;99.90;;;;;;5103729;28;20226;-49
2022/11/30 01:49:22;;;;;;;69.40;24.33;;;6.50;99.90;;;;;;5104004;28;20220;-49
2022/11/30 01:51:56;;;;;;;61.40;22.70;;;6.60;99.90;;;;;;5103741;28;20283;-51
2022/11/30 01:54:28;;;;;;;61.77;23.37;;;6.50;99.90;;;;;;5103094;28;20633;-50
2022/11/30 01:56:58;;;;;;;71.33;24.57;;;6.60;99.90;;;;;;5103808;28;20192;-48
2022/11/30 01:59:25;;;;;;;75.33;25.13;;;6.50;99.90;;;;;;5103318;28;20247;-50
2022/11/30 02:01:52;;;;;;;76.97;26.07;;;6.60;99.90;;;;;;5103137;28;20292;-49
2022/11/30 02:04:25;;;;;;;83.53;28.33;;;6.60;99.90;;;;;;5084516;28;20272;-50
2022/11/30 02:06:51;;;;;;;84.43;27.43;;;6.60;99.90;;;;;;5101825;28;20192;-49
2022/11/30 02:09:19;;;;;;;74.57;26.67;;;6.60;99.90;;;;;;5102273;28;20206;-48
2022/11/30 02:11:45;;;;;;;84.17;27.43;;;6.60;99.90;;;;;;5102015;28;20234;-49
2022/11/30 02:14:35;;;;;;;81.90;28.63;;;6.60;99.90;;;;;;5102312;28;20513;-48
2022/11/30 02:17:01;;;;;;;84.23;27.53;;;6.60;99.90;;;;;;5101935;28;20167;-49
2022/11/30 02:19:45;;;;;;;85.03;29.93;;;6.60;99.90;;;;;;5082997;28;20220;-49
2022/11/30 02:22:31;;;;;;;84.63;29.93;;;6.60;99.90;;;;;;5102075;28;20650;-48
2022/11/30 02:25:18;;;;;;;78.10;27.53;;;6.70;99.90;;;;;;5101559;28;20260;-48
2022/11/30 02:28:20;;;;;;;93.03;29.40;;;6.70;99.90;;;;;;5100778;28;20181;-49
2022/11/30 02:30:50;;;;;;;75.80;27.83;;;6.70;99.90;;;;;;5057378;28;20203;-49
2022/11/30 02:33:22;;;;;;;87.07;25.70;;;6.70;99.90;;;;;;5101697;28;20205;-50
2022/11/30 02:35:52;;;;;;;83.87;27.83;;;6.70;99.90;;;;;;5101748;28;20175;-49
2022/11/30 02:38:23;;;;;;;76.63;27.83;;;6.70;99.90;;;;;;5101430;28;20213;-50
2022/11/30 02:40:48;;;;;;;88.47;29.10;;;6.70;99.90;;;;;;5101382;28;20180;-49
2022/11/30 02:43:16;;;;;;;71.63;27.73;;;6.70;99.90;;;;;;5100760;28;20190;-49
2022/11/30 02:45:57;;;;;;;80.07;27.80;;;6.70;99.90;;;;;;5086174;28;20184;-48
2022/11/30 02:48:33;;;;;;;70.20;28.50;;;6.70;99.90;;;;;;5104723;28;20599;-49
2022/11/30 02:51:01;;;;;;;77.10;26.70;;;6.70;99.90;;;;;;5104535;28;20250;-50
2022/11/30 02:53:27;;;;;;;77.03;26.97;;;6.70;99.90;;;;;;5086697;28;20192;-50
2022/11/30 02:55:53;;;;;;;75.47;27.10;;;6.70;99.90;;;;;;5086680;28;20187;-50
2022/11/30 02:58:20;;;;;;;85.23;26.53;;;6.70;99.90;;;;;;5103515;28;20699;-50
2022/11/30 03:00:46;;;;;;;88.67;26.90;;;6.70;99.90;;;;;;5085859;28;20185;-49
2022/11/30 03:03:12;;;;;;;85.00;26.67;;;6.70;99.90;;;;;;5103717;28;20194;-49
2022/11/30 03:05:37;;;;;;;95.97;26.70;;;6.80;99.90;;;;;;5103463;28;20168;-49
2022/11/30 03:08:03;;;;;;;76.43;25.87;;;6.70;99.90;;;;;;5103165;28;20213;-50
2022/11/30 03:10:28;;;;;;;78.40;25.43;;;6.70;99.90;;;;;;5103075;28;20197;-50
2022/11/30 03:12:58;;;;;;;68.90;26.77;;;6.70;99.90;;;;;;5102867;28;20184;-49
2022/11/30 03:15:24;;;;;;;79.73;27.37;;;6.70;99.90;;;;;;5101974;28;20189;-49
2022/11/30 03:17:49;;;;;;;73.77;25.10;;;6.70;99.90;;;;;;5102615;28;20256;-48
2022/11/30 03:20:15;;;;;;;65.23;25.13;;;6.70;99.90;;;;;;5103389;28;20189;-49
2022/11/30 03:22:41;;;;;;;71.90;24.83;;;6.80;99.90;;;;;;5102411;28;20208;-49
2022/11/30 03:25:07;;;;;;;68.57;26.07;;;6.70;99.90;;;;;;5102969;28;20171;-49
2022/11/30 03:27:32;;;;;;;74.20;25.53;;;6.70;99.90;;;;;;5102613;28;20192;-48
2022/11/30 03:29:58;;;;;;;74.63;26.03;;;6.70;99.90;;;;;;5102795;28;20214;-51
2022/11/30 03:32:24;;;;;;;68.60;26.50;;;6.70;99.90;;;;;;5101858;28;20193;-50
2022/11/30 03:34:49;;;;;;;68.30;25.20;;;6.70;99.90;;;;;;5083360;28;20194;-49
2022/11/30 03:37:15;;;;;;;65.67;25.53;;;6.70;99.90;;;;;;5099766;28;20214;-50
2022/11/30 03:39:40;;;;;;;77.87;26.53;;;6.70;99.90;;;;;;5100037;28;20202;-50
2022/11/30 03:42:06;;;;;;;80.47;27.97;;;6.70;99.90;;;;;;5099677;28;20257;-50
2022/11/30 03:44:31;;;;;;;74.80;25.03;;;6.70;99.90;;;;;;5099013;28;20170;-49
2022/11/30 03:46:57;;;;;;;64.13;25.13;;;6.80;99.90;;;;;;5099093;28;20595;-50
2022/11/30 03:49:23;;;;;;;72.07;24.47;;;6.80;99.90;;;;;;5098065;28;20296;-50
2022/11/30 03:51:48;;;;;;;66.47;24.87;;;6.70;99.90;;;;;;5102337;28;20166;-49
2022/11/30 03:54:14;;;;;;;68.17;24.07;;;6.80;99.90;;;;;;5105401;28;20177;-49
2022/11/30 03:56:39;;;;;;;67.73;25.53;;;6.80;99.90;;;;;;5104505;28;20182;-49
2022/11/30 03:59:05;;;;;;;68.00;25.13;;;6.80;99.90;;;;;;5105980;28;20245;-49
2022/11/30 04:01:31;;;;;;;83.97;27.03;;;6.70;99.90;;;;;;5087856;28;20181;-50
2022/11/30 04:03:56;;;;;;;60.10;24.43;;;6.80;99.90;;;;;;5106351;28;20179;-49
2022/11/30 04:06:22;;;;;;;71.50;24.00;;;6.80;99.90;;;;;;5088204;28;20178;-49
2022/11/30 04:08:48;;;;;;;69.77;24.67;;;6.80;99.90;;;;;;5105832;28;20621;-49
2022/11/30 04:11:14;;;;;;;60.80;23.43;;;6.80;99.90;;;;;;5087786;28;20186;-49
2022/11/30 04:13:40;;;;;;;65.70;22.57;;;6.80;99.90;;;;;;5105569;28;20212;-49
2022/11/30 04:16:06;;;;;;;71.80;25.20;;;6.80;99.90;;;;;;5105377;28;20174;-49
2022/11/30 04:18:33;;;;;;;67.90;24.50;;;6.80;99.90;;;;;;5087447;28;20210;-48
2022/11/30 04:21:00;;;;;;;70.43;25.17;;;6.80;99.90;;;;;;5105671;28;20260;-49
2022/11/30 04:23:29;;;;;;;69.77;24.37;;;6.80;99.90;;;;;;5086889;28;20207;-50
2022/11/30 04:25:56;;;;;;;69.03;25.43;;;6.80;99.90;;;;;;5104845;28;20175;-50
2022/11/30 04:28:22;;;;;;;60.70;23.20;;;6.80;99.90;;;;;;5104483;28;20297;-50
2022/11/30 04:30:47;;;;;;;72.40;25.10;;;6.80;99.90;;;;;;5105193;28;20177;-49
2022/11/30 04:33:14;;;;;;;62.20;24.57;;;6.80;99.90;;;;;;5104968;28;20205;-49
2022/11/30 04:36:00;;;;;;;65.47;23.77;;;6.90;99.90;;;;;;5105040;28;20189;-49
2022/11/30 04:38:26;;;;;;;62.73;23.13;;;6.80;99.90;;;;;;5104432;28;20221;-49
2022/11/30 04:40:51;;;;;;;79.17;25.17;;;6.80;99.90;;;;;;5104954;28;20185;-49
2022/11/30 04:43:17;;;;;;;70.77;24.47;;;6.90;99.90;;;;;;5104638;28;20237;-49
2022/11/30 04:45:46;;;;;;;66.50;26.53;;;6.90;99.90;;;;;;5086365;28;20273;-49
2022/11/30 04:48:13;;;;;;;76.57;27.27;;;6.80;99.90;;;;;;5103464;28;20217;-50
2022/11/30 04:50:38;;;;;;;66.27;27.23;;;6.80;99.90;;;;;;5103910;28;20202;-50
2022/11/30 04:53:04;;;;;;;65.30;25.00;;;6.80;99.90;;;;;;5103562;28;20248;-50
2022/11/30 04:55:30;;;;;;;60.07;26.30;;;6.80;99.90;;;;;;5103670;28;20195;-50
2022/11/30 04:57:56;;;;;;;39.60;20.23;;;6.80;99.90;;;;;;5103363;28;20267;-51
2022/11/30 05:00:21;;;;;;;55.17;28.83;;;6.80;99.90;;;;;;5103546;28;20181;-49
2022/11/30 05:02:47;;;;;;;51.73;25.53;;;6.80;99.90;;;;;;5103577;28;20537;-49
2022/11/30 05:05:13;;;;;;;57.90;27.77;;;6.70;99.90;;;;;;5103489;28;20190;-49
2022/11/30 05:07:39;;;;;;;53.37;25.93;;;6.70;99.90;;;;;;5103006;28;20232;-50
2022/11/30 05:10:06;;;;;;;48.57;25.40;;;6.70;99.90;;;;;;5102866;28;20236;-49
2022/11/30 05:12:31;;;;;;;52.60;25.17;;;6.70;99.90;;;;;;5102196;28;20182;-50
2022/11/30 05:14:57;;;;;;;58.23;27.63;;;6.70;99.90;;;;;;5084235;28;20175;-49
2022/11/30 05:17:23;;;;;;;50.17;26.73;;;6.70;99.90;;;;;;5083804;28;20210;-50
2022/11/30 05:19:48;;;;;;;50.73;25.53;;;6.60;99.90;;;;;;5083822;28;20199;-49
2022/11/30 05:22:14;;;;;;;46.47;23.53;;;6.60;99.90;;;;;;5084583;28;20229;-49
2022/11/30 05:24:39;;;;;;;48.03;24.63;;;6.60;99.90;;;;;;5101191;28;20175;-49
2022/11/30 05:27:05;;;;;;;45.70;22.33;;;6.60;99.90;;;;;;5103499;28;20630;-49
2022/11/30 05:29:31;;;;;;;45.40;24.03;;;6.60;99.90;;;;;;5103105;28;20201;-49
2022/11/30 05:31:56;;;;;;;53.57;26.67;;;6.60;99.90;;;;;;5084648;28;20179;-49
2022/11/30 05:34:22;;;;;;;49.33;24.70;;;6.50;99.90;;;;;;5102561;28;20190;-50
2022/11/30 05:36:47;;;;;;;51.87;26.23;;;6.50;99.90;;;;;;5101889;28;20206;-49
2022/11/30 05:39:13;;;;;;;45.13;24.33;;;6.50;99.90;;;;;;5101228;28;20218;-50
2022/11/30 05:41:38;;;;;;;48.97;24.87;;;6.50;99.90;;;;;;5100499;28;20178;-50
2022/11/30 05:44:05;;;;;;;42.13;23.13;;;6.50;99.90;;;;;;5100475;28;20637;-50
2022/11/30 05:46:30;;;;;;;41.97;22.13;;;6.40;99.90;;;;;;5098442;28;20219;-50
2022/11/30 05:48:56;;;;;;;40.07;22.13;;;6.40;99.90;;;;;;5097714;28;20510;-50
2022/11/30 05:51:22;;;;;;;40.20;22.23;;;6.40;99.90;;;;;;5097613;28;20182;-50
2022/11/30 05:53:47;;;;;;;42.00;23.37;;;6.40;99.90;;;;;;5097339;28;20178;-50
2022/11/30 05:56:15;;;;;;;36.93;20.13;;;7.40;99.90;;;;;;5097451;28;20254;-50
2022/11/30 05:58:42;;;;;;;38.70;21.90;;;6.40;99.90;;;;;;5096450;28;20199;-50
2022/11/30 06:01:15;;;;;;;41.97;22.47;;;6.40;99.90;;;;;;5095666;28;20182;-51
2022/11/30 06:03:41;;;;;;;43.00;21.37;;;6.40;99.90;;;;;;5096620;28;20182;-51
2022/11/30 06:06:06;;;;;;;41.90;22.57;;;6.30;99.90;;;;;;5103672;28;20162;-50
2022/11/30 06:08:32;;;;;;;42.60;22.80;;;6.40;99.90;;;;;;5086420;28;20225;-50
2022/11/30 06:11:01;;;;;;;50.00;23.13;;;6.30;99.90;;;;;;5086427;28;20192;-49
2022/11/30 06:13:27;;;;;;;51.17;25.33;;;6.40;99.90;;;;;;5103419;28;20186;-49
2022/11/30 06:15:52;;;;;;;49.40;24.43;;;6.40;99.90;;;;;;5104305;28;20185;-50
2022/11/30 06:18:18;;;;;;;45.20;23.50;;;6.40;99.90;;;;;;5085707;28;20229;-49
2022/11/30 06:20:43;;;;;;;47.73;24.37;;;6.40;99.90;;;;;;5106408;28;20192;-47
2022/11/30 06:23:09;;;;;;;51.13;25.47;;;6.30;99.90;;;;;;5108144;28;20182;-48
2022/11/30 06:25:34;;;;;;;43.03;25.17;;;6.30;99.90;;;;;;5108005;28;20170;-49
2022/11/30 06:28:00;;;;;;;48.00;25.37;;;6.40;99.90;;;;;;5106923;28;20188;-49
2022/11/30 06:30:25;;;;;;;47.13;24.57;;;6.30;99.90;;;;;;5107672;28;20641;-50
2022/11/30 06:32:51;;;;;;;51.70;22.80;;;6.30;99.90;;;;;;5107731;28;20202;-49
2022/11/30 06:35:18;;;;;;;44.80;24.17;;;6.40;99.90;;;;;;5108438;28;20608;-50
2022/11/30 06:37:44;;;;;;;47.90;26.03;;;6.30;99.90;;;;;;5089158;28;20244;-50
2022/11/30 06:40:12;;;;;;;56.27;29.80;;;6.40;99.90;;;;;;5107801;28;20668;-50
2022/11/30 06:42:38;;;;;;;53.77;27.50;;;6.30;99.90;;;;;;5106425;28;20240;-50
2022/11/30 06:45:05;;;;;;;62.23;27.63;;;6.30;99.90;;;;;;5106967;28;20178;-49
2022/11/30 06:47:30;;;;;;;50.03;26.90;;;6.30;99.90;;;;;;5106690;28;20198;-50
2022/11/30 06:49:56;;;;;;;57.37;26.10;;;6.30;99.90;;;;;;5107188;28;20213;-50
2022/11/30 06:52:22;;;;;;;49.23;26.43;;;6.30;99.90;;;;;;5088272;28;20185;-50
2022/11/30 06:54:47;;;;;;;50.27;26.07;;;6.30;99.90;;;;;;5107073;28;20182;-51
2022/11/30 06:57:13;;;;;;;46.10;26.30;;;6.30;99.90;;;;;;5107295;28;20250;-50
2022/11/30 06:59:41;;;;;;;53.97;25.43;;;6.20;99.90;;;;;;5107914;28;20201;-50
2022/11/30 07:02:14;;;;;;;49.47;27.03;;;6.20;99.90;;;;;;5106496;28;20179;-49
2022/11/30 07:04:40;;;;;;;45.50;25.53;;;6.20;99.90;;;;;;5089221;28;20192;-49
2022/11/30 07:07:06;;;;;;;48.53;25.10;;;6.20;99.90;;;;;;5107248;28;20236;-49
2022/11/30 07:09:35;;;;;;;48.37;26.03;;;6.20;99.90;;;;;;5106741;28;20227;-47
2022/11/30 07:12:01;;;;;;;46.17;25.23;;;6.20;99.90;;;;;;5106780;28;20192;-49
2022/11/30 07:14:27;;;;;;;41.47;24.90;;;6.10;99.90;;;;;;5106178;28;20266;-49
2022/11/30 07:16:53;;;;;;;44.10;23.47;;;6.10;99.90;;;;;;5106182;28;20177;-50
2022/11/30 07:19:18;;;;;;;43.50;24.23;;;6.10;99.90;;;;;;5088596;28;20218;-49
2022/11/30 07:21:44;;;;;;;43.43;24.27;;;6.00;99.90;;;;;;5087954;28;20244;-49
2022/11/30 07:26:59;;;;;;;47.17;25.43;;;6.00;99.90;;;;;;5107031;28;20240;-50
2022/11/30 07:29:25;;;;;;;46.50;24.70;;;5.90;99.90;;;;;;5107058;28;20220;-49
2022/11/30 07:31:51;;;;;;;42.07;23.40;;;5.90;99.90;;;;;;5104791;28;20575;-49
2022/11/30 07:34:17;;;;;;;39.13;22.67;;;5.90;99.90;;;;;;5086654;28;20190;-50
2022/11/30 07:36:43;;;;;;;40.20;21.97;;;5.90;99.90;;;;;;5105485;28;20182;-50
2022/11/30 07:39:09;;;;;;;38.40;20.83;;;5.90;99.90;;;;;;5105390;28;20624;-49
2022/11/30 07:41:34;;;;;;;35.10;20.47;;;5.90;99.90;;;;;;5105108;28;20185;-50
2022/11/30 07:44:02;;;;;;;36.43;20.97;;;5.90;99.90;;;;;;5087022;28;20200;-49
2022/11/30 07:46:28;;;;;;;36.83;21.53;;;5.80;99.90;;;;;;5105632;28;20213;-50
2022/11/30 07:48:53;;;;;;;41.67;21.80;;;5.80;99.90;;;;;;5086287;28;20232;-48
2022/11/30 07:51:20;;;;;;;34.97;20.67;;;5.80;99.90;;;;;;5086970;28;20201;-50
2022/11/30 07:53:47;;;;;;;37.13;21.87;;;5.80;99.90;;;;;;5088089;28;20510;-50
2022/11/30 07:56:16;;;;;;;35.53;20.23;;;5.70;99.90;;;;;;5103841;28;20629;-47
2022/11/30 07:58:42;;;;;;;36.40;20.33;;;5.70;99.90;;;;;;5085243;28;20246;-50
2022/11/30 08:01:13;;;;;;;36.57;20.63;;;5.70;99.90;;;;;;5103347;28;20178;-50
2022/11/30 08:03:39;;;;;;;38.53;21.93;;;5.60;99.90;;;;;;5103070;28;20169;-49
2022/11/30 08:06:10;;;;;;;36.13;21.60;;;5.60;99.90;;;;;;5102961;28;20249;-50
2022/11/30 08:08:38;;;;;;;31.77;20.53;;;5.60;99.90;;;;;;5101960;28;20370;-50
2022/11/30 08:11:06;;;;;;;34.40;21.33;;;5.60;99.90;;;;;;5083533;28;20270;-50
2022/11/30 08:13:32;;;;;;;31.83;20.03;;;5.50;99.90;;;;;;5101781;28;20185;-49
2022/11/30 08:16:07;;;;;;;33.50;19.57;;;5.50;99.90;;;;;;5100530;28;20187;-49
2022/11/30 08:18:33;;;;;;;32.13;19.37;;;5.50;99.90;;;;;;5099268;28;20272;-50
2022/11/30 08:21:01;;;;;;;37.27;19.70;;;5.50;99.90;;;;;;5101142;28;20246;-50
2022/11/30 08:23:29;;;;;;;34.73;19.77;;;5.50;99.90;;;;;;5105975;28;20641;-49
2022/11/30 08:25:55;;;;;;;34.93;20.00;;;5.50;99.90;;;;;;5105657;28;20182;-49
2022/11/30 08:28:20;;;;;;;36.97;21.20;;;5.50;99.90;;;;;;5106049;28;20194;-50
2022/11/30 08:30:46;;;;;;;34.50;19.80;;;5.50;99.90;;;;;;5105766;28;20628;-49
2022/11/30 08:33:12;;;;;;;34.93;20.30;;;5.50;99.90;;;;;;5105395;28;20196;-50
2022/11/30 08:35:38;;;;;;;41.30;23.10;;;5.50;99.90;;;;;;5105936;28;20185;-49
2022/11/30 08:38:03;;;;;;;41.50;24.03;;;5.50;99.90;;;;;;5104860;28;20228;-50
2022/11/30 08:40:29;;;;;;;40.23;22.73;;;5.60;99.90;;;;;;5105648;28;20173;-49
2022/11/30 08:42:57;;;;;;;38.43;21.60;;;5.60;99.90;;;;;;5104847;28;20181;-50
2022/11/30 08:45:22;;;;;;;37.47;21.23;;;5.60;99.90;;;;;;5105700;28;20220;-49
2022/11/30 08:47:48;;;;;;;35.90;21.13;;;5.60;99.90;;;;;;5105062;28;20186;-49
2022/11/30 08:50:13;;;;;;;39.63;23.57;;;5.60;99.90;;;;;;5105445;28;20240;-49
2022/11/30 08:52:39;;;;;;;38.53;22.10;;;5.70;99.90;;;;;;5087357;28;20205;-48
2022/11/30 08:55:05;;;;;;;35.57;21.53;;;5.70;99.90;;;;;;5105113;28;20192;-50
2022/11/30 08:57:32;;;;;;;36.97;21.80;;;5.70;99.90;;;;;;5104882;28;20612;-50
2022/11/30 08:59:57;;;;;;;41.23;22.87;;;5.70;99.90;;;;;;5104996;28;20199;-50
2022/11/30 09:02:23;;;;;;;41.00;23.97;;;5.80;99.90;;;;;;5104492;28;20212;-51
2022/11/30 09:04:49;;;;;;;46.00;24.43;;;5.80;99.90;;;;;;5104576;28;20253;-50
2022/11/30 09:07:15;;;;;;;46.03;24.60;;;5.90;99.90;;;;;;5086633;28;20188;-50
2022/11/30 09:09:41;;;;;;;45.47;25.00;;;5.90;99.90;;;;;;5104335;28;20198;-49
2022/11/30 09:12:07;;;;;;;43.87;23.53;;;6.00;99.90;;;;;;5086556;28;20177;-50
2022/11/30 09:14:32;;;;;;;47.50;25.30;;;6.00;99.90;;;;;;5104040;28;20200;-48
2022/11/30 09:16:58;;;;;;;42.50;21.17;;;6.00;99.90;;;;;;5103933;28;20173;-49
2022/11/30 09:19:24;;;;;;;43.93;24.23;;;6.10;99.90;;;;;;5103756;28;20239;-48
2022/11/30 09:21:49;;;;;;;43.20;23.63;;;6.10;99.90;;;;;;5103799;28;20181;-50
2022/11/30 09:24:15;;;;;;;44.50;24.27;;;6.20;99.90;;;;;;5103728;28;20240;-49
2022/11/30 09:26:41;;;;;;;46.73;25.07;;;6.10;99.90;;;;;;5104938;28;20184;-49
2022/11/30 09:29:06;;;;;;;43.83;24.63;;;6.10;99.90;;;;;;5104463;28;20236;-49
2022/11/30 09:31:32;;;;;;;53.73;26.20;;;6.20;99.90;;;;;;5102946;28;20192;-50
2022/11/30 09:33:58;;;;;;;49.40;25.57;;;6.20;99.90;;;;;;5084962;28;20177;-50
2022/11/30 09:36:26;;;;;;;48.53;25.00;;;6.20;99.90;;;;;;5102903;28;20192;-49
2022/11/30 09:38:52;;;;;;;41.10;24.27;;;6.20;99.90;;;;;;5102375;28;20231;-49
2022/11/30 09:41:52;;;;;;;41.47;23.07;;;6.10;99.90;;;;;;5102949;28;20233;-49
2022/11/30 09:44:27;;;;;;;42.50;24.27;;;6.10;99.90;;;;;;5103148;28;20252;-49
2022/11/30 09:47:24;;;;;;;42.13;23.20;;;6.10;99.90;;;;;;5102980;28;20173;-50
2022/11/30 09:49:50;;;;;;;42.53;23.20;;;6.10;99.90;;;;;;5069551;28;20265;-50
2022/11/30 09:52:29;;;;;;;42.87;23.87;;;6.10;99.90;;;;;;5101875;28;20181;-50
2022/11/30 09:54:55;;;;;;;39.40;21.80;;;6.00;99.90;;;;;;5102026;28;20178;-50
2022/11/30 09:57:41;;;;;;;37.63;22.00;;;6.00;99.90;;;;;;5101971;28;20205;-50
2022/11/30 10:00:14;;;;;;;39.60;23.00;;;6.00;99.90;;;;;;5103841;28;20193;-49
2022/11/30 10:02:40;;;;;;;39.27;22.83;;;5.90;99.90;;;;;;5102655;28;20583;-49
2022/11/30 10:05:16;;;;;;;40.93;21.73;;;6.00;99.90;;;;;;5101967;28;20202;-50
2022/11/30 10:08:03;;;;;;;35.77;20.37;;;5.90;99.90;;;;;;5101104;28;20212;-49
2022/11/30 10:10:46;;;;;;;39.63;20.90;;;6.00;99.90;;;;;;5101582;28;20166;-49
2022/11/30 10:13:26;;;;;;;36.50;22.07;;;6.00;99.90;;;;;;5082957;28;20203;-50
2022/11/30 10:16:10;;;;;;;35.80;21.60;;;6.00;99.90;;;;;;5100961;28;20158;-50
2022/11/30 10:18:42;;;;;;;41.40;22.70;;;6.00;99.90;;;;;;5099862;28;20207;-50
2022/11/30 10:21:36;;;;;;;36.10;20.73;;;6.00;99.90;;;;;;5100463;28;20166;-49
2022/11/30 10:24:10;;;;;;;35.13;20.33;;;6.00;99.90;;;;;;5099991;28;20166;-49
2022/11/30 10:26:38;;;;;;;38.47;21.97;;;6.00;99.90;;;;;;5100012;28;20167;-51
2022/11/30 10:29:18;;;;;;;40.70;21.27;;;6.00;99.90;;;;;;5099279;28;20208;-51
2022/11/30 10:31:45;;;;;;;38.63;21.33;;;6.10;99.90;;;;;;5099170;28;20170;-50
2022/11/30 10:34:34;;;;;;;39.03;21.63;;;6.10;99.90;;;;;;5097266;28;20517;-49
2022/11/30 10:37:14;;;;;;;38.10;21.73;;;6.10;99.90;;;;;;5096726;28;20182;-50
2022/11/30 10:39:48;;;;;;;43.10;25.63;;;6.20;99.90;;;;;;5102090;28;20201;-49
2022/11/30 10:42:27;;;;;;;40.90;22.43;;;6.10;99.90;;;;;;5103270;28;20207;-49
2022/11/30 10:45:09;;;;;;;41.47;23.50;;;6.20;99.90;;;;;;5102761;28;20206;-49
2022/11/30 10:47:38;;;;;;;43.73;23.23;;;6.20;99.90;;;;;;5103561;28;20197;-50
2022/11/30 10:50:06;;;;;;;41.30;22.47;;;6.20;99.90;;;;;;5102391;28;20244;-49
2022/11/30 10:52:42;;;;;;;41.23;21.83;;;6.30;99.90;;;;;;5102870;28;20240;-48
2022/11/30 10:55:19;;;;;;;40.27;21.37;;;6.30;99.90;;;;;;5102515;28;20206;-49
2022/11/30 10:57:46;;;;;;;38.30;22.80;;;6.30;99.90;;;;;;5102876;28;20484;-49
2022/11/30 11:00:15;;;;;;;35.93;20.80;;;6.40;99.90;;;;;;5102791;28;20183;-50
2022/11/30 11:02:45;;;;;;;39.53;22.70;;;6.40;99.90;;;;;;5103355;28;20253;-50
2022/11/30 11:05:23;;;;;;;42.43;23.93;;;6.40;99.90;;;;;;5103597;28;20171;-49
2022/11/30 11:07:58;;;;;;;37.73;22.00;;;6.40;99.90;;;;;;5106313;28;20269;-49
2022/11/30 11:10:39;;;;;;;39.90;23.43;;;6.40;99.90;;;;;;5088235;28;20177;-51
2022/11/30 11:13:05;;;;;;;45.20;25.60;;;6.50;99.90;;;;;;5106398;28;20173;-50
2022/11/30 11:15:34;;;;;;;42.27;25.53;;;6.50;99.90;;;;;;5106348;28;20182;-49
2022/11/30 11:18:15;;;;;;;42.07;23.50;;;6.40;99.90;;;;;;5105028;28;20209;-50
2022/11/30 11:20:43;;;;;;;41.60;23.90;;;6.50;99.90;;;;;;5105674;28;20589;-50
2022/11/30 11:23:28;;;;;;;38.20;22.67;;;6.50;99.90;;;;;;5105804;28;20189;-48
2022/11/30 11:25:54;;;;;;;45.80;24.47;;;6.50;99.90;;;;;;5087566;28;20245;-50
2022/11/30 11:28:21;;;;;;;51.20;31.50;;;6.50;99.90;;;;;;5105010;28;20224;-49
2022/11/30 11:30:47;;;;;;;41.97;24.20;;;6.50;99.90;;;;;;5104925;28;20185;-50
2022/11/30 11:33:12;;;;;;;45.53;25.27;;;6.50;99.90;;;;;;5086497;28;20272;-50
2022/11/30 11:35:48;;;;;;;47.00;26.03;;;6.60;99.90;;;;;;5104486;28;20178;-49
2022/11/30 11:38:29;;;;;;;43.03;25.10;;;6.60;99.90;;;;;;5104430;28;20212;-49
2022/11/30 11:41:01;;;;;;;47.30;25.57;;;6.60;99.90;;;;;;5104769;28;20170;-50
2022/11/30 11:43:32;;;;;;;48.87;28.57;;;6.60;99.90;;;;;;5104116;28;20193;-50
2022/11/30 11:46:08;;;;;;;45.17;26.33;;;6.60;99.90;;;;;;5103675;28;20199;-50
2022/11/30 11:48:40;;;;;;;45.53;24.40;;;6.60;99.90;;;;;;5103374;28;20201;-49
2022/11/30 11:51:09;;;;;;;42.40;25.20;;;6.60;99.90;;;;;;5103841;28;20292;-50
2022/11/30 11:53:50;;;;;;;44.03;25.17;;;6.60;99.90;;;;;;5085211;28;20178;-49
2022/11/30 11:56:32;;;;;;;50.57;27.57;;;6.60;99.90;;;;;;5103308;28;20178;-49
2022/11/30 11:59:21;;;;;;;46.20;26.17;;;8.30;99.90;;;;;;5084545;28;20215;-49
2022/11/30 12:02:00;;;;;;;44.97;24.77;;;6.60;99.90;;;;;;5103291;28;20159;-50
2022/11/30 12:04:49;;;;;;;46.70;26.03;;;6.60;99.90;;;;;;5102661;28;20166;-50
2022/11/30 12:07:37;;;;;;;43.97;26.17;;;6.60;99.90;;;;;;5102016;28;20227;-49
2022/11/30 12:10:16;;;;;;;39.87;24.33;;;6.60;99.90;;;;;;5104681;28;20194;-49
2022/11/30 12:12:41;;;;;;;45.93;24.47;;;6.60;99.90;;;;;;5101869;28;20161;-51
2022/11/30 12:15:13;;;;;;;42.33;24.20;;;6.60;99.90;;;;;;5101220;28;20185;-50
2022/11/30 12:18:01;;;;;;;47.50;26.77;;;6.60;99.90;;;;;;5100562;28;20189;-51
2022/11/30 12:20:57;;;;;;;47.33;25.80;;;6.60;99.90;;;;;;5101180;28;20193;-51
2022/11/30 12:23:50;;;;;;;45.93;24.30;;;6.60;99.90;;;;;;5100658;28;20170;-51
2022/11/30 12:26:43;;;;;;;42.33;24.00;;;6.60;99.90;;;;;;5100868;28;20159;-50
2022/11/30 12:29:42;;;;;;;44.13;24.37;;;6.60;99.90;;;;;;5100468;28;20195;-50
2022/11/30 12:32:26;;;;;;;43.17;25.47;;;6.60;99.90;;;;;;5100457;28;20200;-50
2022/11/30 12:35:18;;;;;;;43.73;25.60;;;6.70;99.90;;;;;;5100246;28;20190;-50
2022/11/30 12:38:18;;;;;;;45.33;27.23;;;6.70;99.90;;;;;;5099843;28;20654;-49
2022/11/30 12:40:53;;;;;;;42.10;24.33;;;6.70;99.90;;;;;;5100676;28;20167;-50
2022/11/30 12:43:27;;;;;;;45.93;25.57;;;6.80;99.90;;;;;;5099486;28;20276;-50
2022/11/30 12:45:58;;;;;;;40.30;24.27;;;6.80;99.90;;;;;;5080999;28;20183;-49
2022/11/30 12:49:02;;;;;;;42.10;24.20;;;6.80;99.90;;;;;;5098806;28;20240;-50
2022/11/30 12:52:15;;;;;;;44.40;25.83;;;6.80;99.90;;;;;;5098346;28;20678;-50